Time;durP1;ratioP1;P1;durP2;ratioP2;P2;SDS_P1;SDS_P2;PMS_P1;PMS_P2;Temp;Humidity;BMP_temperature;BMP_pressure;BME280_temperature;BME280_humidity;BME280_pressure;Samples;Min_cycle;Max_cycle;Signal;HPM_P1;HPM_P2
2023/05/22 00:02:01;;;;;;;12.38;11.18;;;22.90;64.40;;;;;;4887055;28;87052;-84
2023/05/22 00:04:28;;;;;;;11.60;10.50;;;22.90;64.40;;;;;;4886674;28;88274;-85
2023/05/22 00:06:55;;;;;;;11.80;10.52;;;22.90;64.40;;;;;;4888071;28;87281;-84
2023/05/22 00:09:22;;;;;;;12.38;11.10;;;22.90;64.30;;;;;;4886965;28;89036;-87
2023/05/22 00:11:48;;;;;;;11.50;10.40;;;22.90;64.40;;;;;;4887608;28;87484;-84
2023/05/22 00:14:14;;;;;;;12.77;11.55;;;22.90;64.50;;;;;;4886076;28;88692;-84
2023/05/22 00:16:40;;;;;;;11.65;10.55;;;22.90;64.30;;;;;;4886950;28;87876;-87
2023/05/22 00:19:11;;;;;;;11.35;10.25;;;22.90;64.40;;;;;;4887436;28;87383;-84
2023/05/22 00:21:40;;;;;;;12.65;11.48;;;22.90;64.40;;;;;;4883972;28;87761;-84
2023/05/22 00:24:06;;;;;;;11.47;10.30;;;22.90;64.30;;;;;;4886835;28;88083;-85
2023/05/22 00:26:31;;;;;;;12.63;11.43;;;22.90;64.40;;;;;;4886815;28;87891;-84
2023/05/22 00:28:57;;;;;;;12.32;11.13;;;22.90;64.40;;;;;;4886729;28;88309;-84
2023/05/22 00:31:23;;;;;;;11.50;10.40;;;22.90;64.40;;;;;;4884455;28;88087;-85
2023/05/22 00:33:49;;;;;;;12.73;11.43;;;22.90;64.70;;;;;;4886655;28;88517;-85
2023/05/22 00:36:14;;;;;;;12.90;11.68;;;22.90;64.40;;;;;;4887274;28;88176;-86
2023/05/22 00:38:40;;;;;;;12.55;11.25;;;22.90;64.50;;;;;;4886677;28;87394;-85
2023/05/22 00:41:06;;;;;;;13.07;11.13;;;22.90;64.50;;;;;;4886388;28;87779;-88
2023/05/22 00:43:32;;;;;;;12.10;10.80;;;22.90;64.70;;;;;;4885693;28;87839;-84
2023/05/22 00:45:59;;;;;;;11.32;10.15;;;22.90;64.40;;;;;;4886886;28;87624;-84
2023/05/22 00:48:24;;;;;;;12.30;11.10;;;22.90;64.70;;;;;;4886742;28;87850;-85
2023/05/22 00:50:52;;;;;;;12.15;10.73;;;22.90;64.70;;;;;;4887297;28;87591;-84
2023/05/22 00:53:23;;;;;;;11.75;10.57;;;22.90;64.50;;;;;;4884105;28;92182;-88
2023/05/22 00:55:49;;;;;;;11.25;9.88;;;22.90;64.40;;;;;;4886612;28;87981;-84
2023/05/22 00:58:17;;;;;;;11.52;10.32;;;22.80;64.50;;;;;;4886428;28;89511;-84
2023/05/22 01:00:43;;;;;;;11.82;10.73;;;22.90;64.50;;;;;;4885865;28;87817;-85
2023/05/22 01:03:09;;;;;;;11.30;10.20;;;22.90;64.70;;;;;;4886563;28;88297;-84
2023/05/22 01:05:35;;;;;;;11.63;10.50;;;22.90;64.40;;;;;;4884542;28;86984;-84
2023/05/22 01:08:02;;;;;;;11.77;10.57;;;22.90;64.50;;;;;;4886901;28;89162;-86
2023/05/22 01:10:29;;;;;;;12.48;11.20;;;22.80;64.40;;;;;;4884488;28;87976;-84
2023/05/22 01:13:41;;;;;;;11.80;10.70;;;22.90;64.30;;;;;;4884495;28;90565;-87
2023/05/22 01:16:17;;;;;;;11.57;10.48;;;22.90;64.30;;;;;;4883536;28;92161;-84
2023/05/22 01:18:53;;;;;;;12.20;11.00;;;22.80;64.40;;;;;;4886195;28;88319;-85
2023/05/22 01:21:23;;;;;;;11.27;10.18;;;22.80;64.20;;;;;;4885671;28;87463;-84
2023/05/22 01:23:59;;;;;;;11.48;10.20;;;22.80;64.30;;;;;;4882774;28;90466;-84
2023/05/22 01:26:40;;;;;;;11.32;10.23;;;22.90;64.30;;;;;;4885158;28;88203;-84
2023/05/22 01:29:17;;;;;;;11.40;10.30;;;22.80;64.30;;;;;;4884519;28;87575;-84
2023/05/22 01:31:46;;;;;;;10.68;9.68;;;22.80;64.50;;;;;;4884090;28;89531;-86
2023/05/22 01:34:13;;;;;;;10.98;9.90;;;22.80;64.50;;;;;;4886301;28;88869;-84
2023/05/22 01:36:40;;;;;;;11.57;10.38;;;22.80;64.40;;;;;;4886848;28;88398;-84
2023/05/22 01:39:07;;;;;;;10.70;9.60;;;22.80;64.30;;;;;;4883206;28;88325;-84
2023/05/22 01:41:33;;;;;;;10.57;9.55;;;22.80;64.60;;;;;;4886546;28;87992;-84
2023/05/22 01:44:00;;;;;;;10.90;9.82;;;22.80;65.30;;;;;;4885227;28;94758;-85
2023/05/22 01:46:30;;;;;;;11.50;10.40;;;22.80;64.60;;;;;;4886647;28;87860;-84
2023/05/22 01:48:56;;;;;;;11.10;10.00;;;22.80;64.50;;;;;;4887174;28;88682;-86
2023/05/22 01:51:28;;;;;;;11.40;10.30;;;22.80;64.50;;;;;;4886162;28;87414;-84
2023/05/22 01:54:18;;;;;;;11.02;9.70;;;22.80;64.60;;;;;;4884225;28;88466;-84
2023/05/22 01:57:03;;;;;;;10.98;9.88;;;22.80;64.60;;;;;;4885969;28;87544;-85
2023/05/22 01:59:47;;;;;;;11.07;9.95;;;22.80;64.50;;;;;;4901574;28;88183;-83
2023/05/22 02:02:16;;;;;;;10.07;9.13;;;22.80;65.60;;;;;;4884751;28;88140;-84
2023/05/22 02:04:45;;;;;;;;;;;22.80;64.50;;;;;;4884756;28;89298;-86
2023/05/22 02:07:12;;;;;;;10.77;9.68;;;22.80;65.40;;;;;;4889813;28;87027;-83
2023/05/22 02:09:39;;;;;;;11.48;10.27;;;22.80;64.50;;;;;;4886615;28;88723;-86
2023/05/22 02:12:06;;;;;;;10.27;9.27;;;22.80;64.60;;;;;;4887945;28;88029;-84
2023/05/22 02:14:33;;;;;;;11.35;10.25;;;22.80;64.60;;;;;;4884525;28;91363;-84
2023/05/22 02:17:00;;;;;;;11.63;10.48;;;22.80;64.70;;;;;;4887134;28;88805;-85
2023/05/22 02:19:27;;;;;;;10.88;9.77;;;22.80;64.70;;;;;;4886812;28;87183;-85
2023/05/22 02:21:52;;;;;;;11.20;10.10;;;22.80;64.80;;;;;;4885251;28;89212;-83
2023/05/22 02:24:18;;;;;;;11.82;10.63;;;22.70;64.60;;;;;;4884685;28;88836;-84
2023/05/22 02:26:44;;;;;;;11.88;10.75;;;22.70;64.70;;;;;;4886101;28;87631;-84
2023/05/22 02:29:11;;;;;;;11.48;10.38;;;22.80;64.70;;;;;;4884201;28;87589;-87
2023/05/22 02:31:37;;;;;;;11.23;10.13;;;22.80;64.70;;;;;;4884101;28;88499;-88
2023/05/22 02:34:05;;;;;;;11.73;10.63;;;22.80;64.60;;;;;;4886699;28;87666;-84
2023/05/22 02:36:31;;;;;;;11.88;10.68;;;22.70;64.60;;;;;;4886183;28;88144;-85
2023/05/22 02:38:57;;;;;;;11.00;9.80;;;22.70;65.00;;;;;;4884484;28;88010;-84
2023/05/22 02:41:23;;;;;;;11.77;10.63;;;22.70;64.80;;;;;;4886505;28;87059;-85
2023/05/22 02:43:49;;;;;;;11.85;10.65;;;22.70;64.70;;;;;;4883292;28;89420;-83
2023/05/22 02:46:14;;;;;;;11.60;10.43;;;22.70;64.70;;;;;;4885998;28;87951;-86
2023/05/22 02:48:40;;;;;;;11.88;10.77;;;22.70;64.70;;;;;;4886553;28;87730;-85
2023/05/22 02:51:06;;;;;;;10.80;9.80;;;22.70;64.90;;;;;;4885059;28;87619;-85
2023/05/22 02:53:34;;;;;;;11.40;10.30;;;22.60;64.70;;;;;;4886171;28;88135;-85
2023/05/22 02:56:00;;;;;;;11.75;10.65;;;22.70;64.90;;;;;;4886580;28;88292;-87
2023/05/22 02:58:26;;;;;;;11.43;10.25;;;22.60;64.90;;;;;;4886007;28;87251;-83
2023/05/22 03:00:52;;;;;;;11.02;9.93;;;22.70;64.80;;;;;;4886959;28;88380;-83
2023/05/22 03:03:18;;;;;;;11.40;10.35;;;22.60;65.00;;;;;;4885635;28;88542;-84
2023/05/22 03:05:44;;;;;;;11.35;10.15;;;22.60;64.90;;;;;;4885825;28;91254;-82
2023/05/22 03:08:10;;;;;;;11.52;10.43;;;22.60;64.90;;;;;;4887548;28;87917;-84
2023/05/22 03:10:37;;;;;;;10.82;9.57;;;22.60;65.00;;;;;;4886519;28;88139;-84
2023/05/22 03:13:02;;;;;;;10.32;9.32;;;22.60;65.10;;;;;;4886644;28;87711;-85
2023/05/22 03:15:28;;;;;;;11.43;10.32;;;22.60;65.00;;;;;;4884397;28;88048;-83
2023/05/22 03:17:54;;;;;;;11.05;9.70;;;22.60;65.00;;;;;;4886253;28;87320;-84
2023/05/22 03:20:19;;;;;;;10.38;9.38;;;22.60;65.00;;;;;;4886295;28;86907;-83
2023/05/22 03:22:45;;;;;;;10.60;9.50;;;22.60;65.00;;;;;;4884639;28;89937;-83
2023/05/22 03:25:11;;;;;;;10.93;9.82;;;22.60;65.10;;;;;;4885308;28;90456;-85
2023/05/22 03:27:39;;;;;;;11.95;10.85;;;22.60;65.10;;;;;;4884305;28;88501;-87
2023/05/22 03:30:06;;;;;;;10.18;9.27;;;22.60;65.10;;;;;;4883368;28;88235;-84
2023/05/22 03:32:35;;;;;;;11.05;9.93;;;22.60;65.10;;;;;;4883665;28;90122;-83
2023/05/22 03:35:01;;;;;;;10.82;9.82;;;22.50;65.10;;;;;;4887999;28;88454;-83
2023/05/22 03:37:27;;;;;;;11.00;9.88;;;22.50;65.10;;;;;;4889551;28;87328;-84
2023/05/22 03:39:52;;;;;;;11.23;10.10;;;22.50;65.00;;;;;;4887250;28;90210;-85
2023/05/22 03:42:19;;;;;;;10.90;9.90;;;22.50;65.20;;;;;;4888559;28;87388;-85
2023/05/22 03:44:44;;;;;;;11.73;10.52;;;22.50;65.10;;;;;;4886619;28;89230;-84
2023/05/22 03:47:10;;;;;;;10.27;9.27;;;22.50;65.10;;;;;;4886006;28;88122;-84
2023/05/22 03:49:36;;;;;;;11.00;9.93;;;22.50;65.10;;;;;;4888204;28;87770;-85
2023/05/22 03:52:02;;;;;;;10.45;9.45;;;22.50;65.00;;;;;;4886740;28;89865;-86
2023/05/22 03:54:27;;;;;;;10.75;9.70;;;22.50;64.90;;;;;;4889136;28;88142;-87
2023/05/22 03:56:54;;;;;;;10.85;9.77;;;22.50;65.10;;;;;;4888915;28;87448;-87
2023/05/22 03:59:20;;;;;;;10.63;9.63;;;22.50;65.00;;;;;;4888973;28;87388;-86
2023/05/22 04:01:47;;;;;;;10.35;9.43;;;22.50;65.20;;;;;;4888402;28;87680;-85
2023/05/22 04:04:13;;;;;;;10.40;9.45;;;22.50;65.00;;;;;;4889968;28;87344;-83
2023/05/22 04:06:42;;;;;;;11.23;10.13;;;22.50;64.90;;;;;;4888416;28;88208;-84
2023/05/22 04:09:11;;;;;;;10.88;9.77;;;22.50;65.10;;;;;;4886342;28;87653;-83
2023/05/22 04:11:41;;;;;;;11.05;9.95;;;22.50;64.90;;;;;;4889646;28;88272;-82
2023/05/22 04:14:07;;;;;;;10.55;9.55;;;22.50;65.00;;;;;;4887798;28;87829;-84
2023/05/22 04:16:33;;;;;;;11.75;10.57;;;22.50;64.80;;;;;;4886238;28;88415;-84
2023/05/22 04:19:02;;;;;;;10.45;9.45;;;22.50;65.10;;;;;;4889300;28;87470;-85
2023/05/22 04:21:29;;;;;;;10.68;9.65;;;22.50;65.00;;;;;;4888655;28;87733;-85
2023/05/22 04:23:55;;;;;;;10.18;9.18;;;22.50;65.10;;;;;;4887929;28;87438;-83
2023/05/22 04:26:20;;;;;;;10.65;9.60;;;22.50;65.00;;;;;;4886778;28;87368;-84
2023/05/22 04:28:46;;;;;;;10.60;9.60;;;22.50;65.10;;;;;;4887070;28;90214;-87
2023/05/22 04:31:15;;;;;;;10.50;9.50;;;22.50;65.10;;;;;;4887165;28;90170;-85
2023/05/22 04:33:41;;;;;;;10.48;9.48;;;22.50;65.10;;;;;;4887014;28;90189;-86
2023/05/22 04:36:09;;;;;;;10.60;9.57;;;22.50;65.00;;;;;;4889645;28;87421;-86
2023/05/22 04:38:36;;;;;;;10.68;9.65;;;22.50;65.10;;;;;;4890337;28;87934;-84
2023/05/22 04:41:02;;;;;;;10.40;9.40;;;22.40;65.20;;;;;;4888673;28;89761;-84
2023/05/22 04:43:28;;;;;;;10.80;9.80;;;22.50;65.00;;;;;;4888027;28;88166;-87
2023/05/22 04:45:55;;;;;;;9.75;8.82;;;22.40;64.90;;;;;;4888836;28;87368;-84
2023/05/22 04:48:21;;;;;;;10.85;9.75;;;22.40;65.00;;;;;;4888144;28;87610;-88
2023/05/22 04:50:48;;;;;;;11.10;10.00;;;22.40;65.00;;;;;;4887453;28;88453;-84
2023/05/22 04:53:14;;;;;;;10.30;9.13;;;22.40;64.80;;;;;;4888075;28;88042;-87
2023/05/22 04:55:40;;;;;;;10.68;9.68;;;22.40;65.00;;;;;;4887616;28;87996;-83
2023/05/22 04:58:06;;;;;;;10.18;9.18;;;22.40;65.20;;;;;;4887217;28;87379;-84
2023/05/22 05:00:32;;;;;;;10.07;9.07;;;22.40;65.10;;;;;;4886981;28;87686;-85
2023/05/22 05:02:59;;;;;;;10.73;9.63;;;22.40;65.10;;;;;;4888848;28;87654;-85
2023/05/22 05:05:24;;;;;;;10.35;9.35;;;22.40;65.40;;;;;;4888642;28;89019;-85
2023/05/22 05:07:50;;;;;;;10.00;9.00;;;22.40;65.40;;;;;;4887061;28;89604;-84
2023/05/22 05:10:16;;;;;;;11.63;10.43;;;22.40;65.30;;;;;;4887419;28;88607;-84
2023/05/22 05:12:42;;;;;;;10.48;9.38;;;22.40;65.20;;;;;;4887084;28;87944;-86
2023/05/22 05:15:08;;;;;;;9.80;8.90;;;22.40;65.10;;;;;;4886192;28;87110;-84
2023/05/22 05:17:34;;;;;;;10.55;9.45;;;22.40;65.00;;;;;;4888301;28;87357;-84
2023/05/22 05:20:00;;;;;;;10.35;9.35;;;22.40;65.00;;;;;;4888652;28;87700;-91
2023/05/22 05:22:26;;;;;;;14.23;12.00;;;22.40;64.90;;;;;;4888566;28;87990;-85
2023/05/22 05:24:51;;;;;;;16.92;11.73;;;22.40;64.60;;;;;;4888369;28;87478;-89
2023/05/22 05:27:17;;;;;;;23.38;15.70;;;22.40;64.90;;;;;;4887545;28;88227;-86
2023/05/22 05:29:43;;;;;;;23.20;16.38;;;22.30;64.50;;;;;;4886653;28;89025;-87
2023/05/22 05:32:10;;;;;;;19.02;14.15;;;22.30;64.50;;;;;;4899521;28;89773;-87
2023/05/22 05:34:35;;;;;;;17.80;13.25;;;22.30;64.50;;;;;;4883495;28;88271;-85
2023/05/22 05:37:01;;;;;;;21.88;15.93;;;22.40;64.50;;;;;;4888257;28;87724;-85
2023/05/22 05:39:27;;;;;;;19.80;14.05;;;22.40;64.50;;;;;;4883650;28;90732;-85
2023/05/22 05:41:53;;;;;;;22.92;13.98;;;22.50;64.40;;;;;;4884098;28;91409;-86
2023/05/22 05:44:18;;;;;;;19.98;15.07;;;22.40;65.10;;;;;;4885959;28;88296;-86
2023/05/22 05:46:45;;;;;;;23.45;15.75;;;22.40;65.20;;;;;;4884360;28;88828;-84
2023/05/22 05:49:10;;;;;;;24.45;16.35;;;22.40;65.30;;;;;;4885267;28;87974;-87
2023/05/22 05:51:37;;;;;;;30.45;19.55;;;22.50;65.30;;;;;;4883470;28;90646;-87
2023/05/22 05:54:03;;;;;;;29.98;19.38;;;22.50;64.40;;;;;;4886509;28;88331;-86
2023/05/22 05:56:29;;;;;;;31.88;16.58;;;22.40;64.40;;;;;;4882771;28;90867;-85
2023/05/22 05:58:55;;;;;;;30.08;18.40;;;22.50;65.00;;;;;;4885770;28;87850;-87
2023/05/22 06:01:23;;;;;;;30.40;18.88;;;22.50;64.70;;;;;;4886426;28;87880;-93
2023/05/22 06:03:49;;;;;;;27.40;17.27;;;22.50;64.90;;;;;;4887158;28;87227;-88
2023/05/22 06:06:16;;;;;;;29.48;17.67;;;22.50;65.30;;;;;;4883025;28;88041;-85
2023/05/22 06:08:43;;;;;;;26.52;17.10;;;22.60;64.90;;;;;;4882316;28;87794;-84
2023/05/22 06:11:08;;;;;;;28.75;20.27;;;22.50;65.30;;;;;;4882991;28;87501;-87
2023/05/22 06:13:34;;;;;;;29.83;18.83;;;22.40;65.00;;;;;;4883385;28;88049;-84
2023/05/22 06:16:00;;;;;;;28.40;18.38;;;22.40;65.10;;;;;;4882691;28;88179;-84
2023/05/22 06:18:26;;;;;;;25.65;17.05;;;22.40;65.20;;;;;;4880522;28;89496;-86
2023/05/22 06:20:52;;;;;;;26.92;17.67;;;22.30;65.50;;;;;;4881709;28;90010;-85
2023/05/22 06:23:18;;;;;;;29.27;16.65;;;22.30;65.50;;;;;;4897989;28;87305;-88
2023/05/22 06:25:44;;;;;;;24.92;16.52;;;22.30;65.70;;;;;;4884101;28;87464;-86
2023/05/22 06:28:10;;;;;;;25.08;17.17;;;22.30;65.60;;;;;;4883269;28;88285;-85
2023/05/22 06:30:36;;;;;;;30.25;18.85;;;22.30;65.80;;;;;;4882716;28;87842;-85
2023/05/22 06:33:02;;;;;;;23.95;16.90;;;22.30;65.80;;;;;;4879109;28;87126;-88
2023/05/22 06:35:29;;;;;;;30.15;19.35;;;22.30;65.70;;;;;;4877787;28;87013;-84
2023/05/22 06:37:54;;;;;;;28.83;18.23;;;22.30;65.90;;;;;;4879420;28;90940;-84
2023/05/22 06:40:20;;;;;;;27.23;18.88;;;22.30;66.00;;;;;;4883806;28;90670;-84
2023/05/22 06:42:46;;;;;;;29.38;17.73;;;22.40;65.90;;;;;;4881215;28;88098;-84
2023/05/22 06:45:12;;;;;;;28.90;18.23;;;22.50;65.60;;;;;;4865393;28;88598;-84
2023/05/22 06:47:38;;;;;;;25.27;16.98;;;22.40;65.60;;;;;;4876698;28;90937;-84
2023/05/22 06:50:04;;;;;;;27.40;18.23;;;22.40;65.40;;;;;;4894094;28;90311;-86
2023/05/22 06:52:30;;;;;;;27.10;17.65;;;22.40;65.70;;;;;;4878454;28;87862;-85
2023/05/22 06:55:03;;;;;;;30.83;17.77;;;22.40;65.40;;;;;;4877004;28;88230;-85
2023/05/22 06:57:30;;;;;;;38.70;20.52;;;22.50;65.70;;;;;;4876744;28;89211;-83
2023/05/22 06:59:55;;;;;;;30.48;18.90;;;22.50;64.40;;;;;;4875952;28;90416;-84
2023/05/22 07:02:21;;;;;;;31.50;16.85;;;22.50;64.70;;;;;;4875646;28;87738;-87
2023/05/22 07:04:47;;;;;;;27.95;17.20;;;22.50;65.80;;;;;;4882566;28;87940;-89
2023/05/22 07:07:12;;;;;;;31.45;18.27;;;22.60;64.80;;;;;;4877716;28;89124;-89
2023/05/22 07:09:38;;;;;;;24.95;17.75;;;22.50;64.60;;;;;;4880542;28;88543;-87
2023/05/22 07:12:04;;;;;;;34.70;19.73;;;22.40;64.90;;;;;;4882373;28;88203;-87
2023/05/22 07:14:30;;;;;;;29.50;18.42;;;22.50;64.70;;;;;;4881253;28;87398;-86
2023/05/22 07:16:56;;;;;;;34.13;19.80;;;22.50;65.10;;;;;;4881093;28;88460;-86
2023/05/22 07:19:22;;;;;;;31.98;19.63;;;22.40;65.10;;;;;;4883367;28;87432;-85
2023/05/22 07:21:47;;;;;;;60.25;22.73;;;22.40;66.10;;;;;;4882901;28;88164;-87
2023/05/22 07:24:14;;;;;;;71.03;26.67;;;22.40;65.50;;;;;;4883117;28;87506;-87
2023/05/22 07:26:45;;;;;;;102.30;35.90;;;22.30;66.40;;;;;;4880307;28;90980;-84
2023/05/22 07:29:12;;;;;;;100.00;35.17;;;22.30;65.80;;;;;;4881306;28;87607;-86
2023/05/22 07:31:38;;;;;;;106.88;41.58;;;22.30;65.70;;;;;;4877621;28;88378;-87
2023/05/22 07:34:04;;;;;;;88.28;35.45;;;22.30;66.00;;;;;;4882169;28;88305;-88
2023/05/22 07:36:30;;;;;;;97.00;35.88;;;22.30;65.90;;;;;;4885644;28;88283;-88
2023/05/22 07:38:56;;;;;;;85.35;36.97;;;22.40;65.40;;;;;;4887410;28;89089;-85
2023/05/22 07:41:24;;;;;;;84.97;35.95;;;22.40;65.40;;;;;;4888878;28;87755;-87
2023/05/22 07:43:50;;;;;;;76.20;34.88;;;22.30;65.60;;;;;;4886347;28;88114;-88
2023/05/22 07:46:15;;;;;;;77.88;32.47;;;22.30;65.60;;;;;;4890996;28;87769;-87
2023/05/22 07:48:42;;;;;;;88.60;37.20;;;22.40;66.30;;;;;;4890073;28;87272;-89
2023/05/22 07:51:08;;;;;;;91.20;37.58;;;22.30;65.60;;;;;;4888604;28;87437;-88
2023/05/22 07:53:33;;;;;;;85.70;36.97;;;22.30;65.60;;;;;;4888746;28;87831;-84
2023/05/22 07:55:59;;;;;;;80.95;34.40;;;22.30;65.60;;;;;;4888672;28;89152;-86
2023/05/22 07:58:25;;;;;;;78.47;31.23;;;22.30;65.90;;;;;;4889727;28;88159;-87
2023/05/22 08:00:51;;;;;;;67.20;30.58;;;22.40;65.60;;;;;;4889498;28;87949;-85
2023/05/22 08:03:17;;;;;;;68.00;31.60;;;22.40;65.80;;;;;;4885698;28;87754;-85
2023/05/22 08:05:42;;;;;;;77.68;31.98;;;22.50;65.80;;;;;;4888358;28;88576;-88
2023/05/22 08:08:09;;;;;;;70.97;31.77;;;22.60;65.50;;;;;;4890041;28;87335;-90
2023/05/22 08:10:36;;;;;;;78.28;31.25;;;22.60;65.30;;;;;;4890947;28;87363;-86
2023/05/22 08:13:05;;;;;;;64.18;29.00;;;22.50;65.80;;;;;;4888433;28;87606;-91
2023/05/22 08:15:33;;;;;;;72.88;33.10;;;22.50;65.90;;;;;;4883698;28;88646;-84
2023/05/22 08:17:59;;;;;;;67.90;31.88;;;22.50;65.70;;;;;;4884485;28;87858;-86
2023/05/22 08:20:25;;;;;;;69.07;30.98;;;22.40;66.00;;;;;;4887064;28;88407;-84
2023/05/22 08:22:51;;;;;;;65.38;32.95;;;22.50;65.80;;;;;;4884221;28;87649;-84
2023/05/22 08:25:17;;;;;;;61.65;29.67;;;22.50;65.10;;;;;;4890582;28;88669;-88
2023/05/22 08:27:42;;;;;;;67.78;32.25;;;22.50;65.30;;;;;;4889986;28;88341;-84
2023/05/22 08:30:08;;;;;;;64.00;32.47;;;22.50;65.70;;;;;;4891180;28;87629;-88
2023/05/22 08:32:34;;;;;;;61.92;30.85;;;22.40;66.00;;;;;;4889355;28;87214;-83
2023/05/22 08:35:01;;;;;;;61.45;29.65;;;22.40;66.30;;;;;;4889381;28;88154;-84
2023/05/22 08:37:26;;;;;;;60.75;31.15;;;22.40;66.20;;;;;;4890346;28;87836;-82
2023/05/22 08:39:52;;;;;;;65.22;32.63;;;22.40;66.40;;;;;;4890967;28;87688;-82
2023/05/22 08:42:17;;;;;;;67.03;33.75;;;22.40;66.90;;;;;;4890150;28;87549;-84
2023/05/22 08:44:43;;;;;;;71.57;34.70;;;22.40;67.30;;;;;;4888956;28;88147;-86
2023/05/22 08:47:12;;;;;;;66.43;35.65;;;22.40;66.80;;;;;;4890615;28;89447;-83
2023/05/22 08:49:39;;;;;;;67.38;35.15;;;22.30;66.10;;;;;;4888315;28;87390;-86
2023/05/22 08:52:11;;;;;;;65.68;36.05;;;22.30;65.70;;;;;;4889564;28;87559;-92
2023/05/22 08:54:43;;;;;;;64.32;37.05;;;22.20;64.70;;;;;;4890242;28;87617;-87
2023/05/22 08:57:10;;;;;;;72.05;39.97;;;22.20;64.20;;;;;;4889006;28;89002;-83
2023/05/22 08:59:40;;;;;;;67.00;37.45;;;22.20;63.90;;;;;;4889604;28;87427;-84
2023/05/22 09:02:07;;;;;;;69.25;38.45;;;22.20;63.50;;;;;;4891481;28;87708;-92
2023/05/22 09:04:34;;;;;;;68.35;38.40;;;22.10;63.40;;;;;;4887146;28;87423;-86
2023/05/22 09:07:04;;;;;;;65.60;39.38;;;22.10;63.10;;;;;;4892164;28;87494;-85
2023/05/22 09:09:31;;;;;;;64.40;38.13;;;22.10;62.80;;;;;;4890515;28;88629;-90
2023/05/22 09:11:57;;;;;;;75.15;41.53;;;22.10;63.00;;;;;;4891602;28;87161;-89
2023/05/22 09:14:24;;;;;;;67.32;38.80;;;22.10;63.00;;;;;;4892835;28;87437;-93
2023/05/22 09:16:51;;;;;;;64.88;41.22;;;22.10;63.00;;;;;;4890542;28;90857;-86
2023/05/22 09:19:17;;;;;;;63.78;38.78;;;22.10;62.70;;;;;;4891825;28;87262;-87
2023/05/22 09:21:43;;;;;;;64.25;37.40;;;22.00;62.60;;;;;;4886911;28;87859;-84
2023/05/22 09:24:10;;;;;;;61.50;36.38;;;22.00;62.70;;;;;;4900907;28;90276;-87
2023/05/22 09:26:37;;;;;;;62.58;35.53;;;22.10;63.00;;;;;;4885282;28;87889;-87
2023/05/22 09:29:07;;;;;;;65.72;37.55;;;22.10;63.60;;;;;;4885709;28;87546;-91
2023/05/22 09:31:41;;;;;;;68.00;37.42;;;22.10;63.00;;;;;;4886246;28;88033;-88
2023/05/22 09:34:09;;;;;;;56.72;36.08;;;22.10;63.30;;;;;;4885111;28;90031;-87
2023/05/22 09:36:35;;;;;;;64.13;35.60;;;22.20;63.40;;;;;;4886918;28;88759;-85
2023/05/22 09:39:03;;;;;;;57.33;35.08;;;22.30;63.60;;;;;;4900869;28;87542;-86
2023/05/22 09:41:30;;;;;;;60.92;35.58;;;22.30;63.40;;;;;;4884716;28;88038;-85
2023/05/22 09:43:55;;;;;;;68.32;35.83;;;22.30;62.90;;;;;;4885335;28;88152;-86
2023/05/22 09:46:21;;;;;;;55.28;33.70;;;22.30;63.00;;;;;;4885791;28;87507;-86
2023/05/22 09:48:53;;;;;;;57.75;31.98;;;22.30;63.30;;;;;;4885441;28;87779;-86
2023/05/22 09:51:25;;;;;;;55.83;31.27;;;22.30;62.70;;;;;;4883484;28;87207;-86
2023/05/22 09:53:55;;;;;;;52.03;29.85;;;22.20;62.80;;;;;;4898248;28;90952;-86
2023/05/22 09:56:22;;;;;;;51.92;30.95;;;22.20;62.80;;;;;;4885118;28;88869;-86
2023/05/22 09:58:51;;;;;;;54.83;32.65;;;22.20;63.00;;;;;;4884686;28;88728;-86
2023/05/22 10:01:20;;;;;;;52.30;30.17;;;22.10;63.00;;;;;;4887023;28;87208;-89
2023/05/22 10:03:48;;;;;;;47.50;30.05;;;22.30;63.80;;;;;;4885690;28;92435;-86
2023/05/22 10:06:17;;;;;;;51.13;30.08;;;22.40;63.50;;;;;;4882611;28;89695;-87
2023/05/22 10:08:53;;;;;;;50.92;29.90;;;22.30;63.40;;;;;;4884763;28;87747;-87
2023/05/22 10:11:20;;;;;;;48.28;29.52;;;22.30;63.60;;;;;;4885813;28;87695;-87
2023/05/22 10:13:46;;;;;;;51.35;30.92;;;22.30;63.80;;;;;;4883992;28;88672;-86
2023/05/22 10:16:15;;;;;;;54.83;30.88;;;22.30;64.00;;;;;;4885644;28;87244;-86
2023/05/22 10:18:44;;;;;;;49.20;29.92;;;22.40;64.10;;;;;;4884685;28;87903;-87
2023/05/22 10:21:11;;;;;;;46.35;28.70;;;22.40;64.40;;;;;;4881690;28;88050;-86
2023/05/22 10:23:38;;;;;;;51.72;31.48;;;22.40;64.50;;;;;;4883864;28;90087;-86
2023/05/22 10:26:05;;;;;;;44.70;28.75;;;22.40;64.50;;;;;;4884204;28;87468;-87
2023/05/22 10:28:59;;;;;;;51.38;29.85;;;22.40;64.70;;;;;;4885242;28;86982;-86
2023/05/22 10:31:47;;;;;;;42.92;28.63;;;22.40;64.70;;;;;;4866908;28;87613;-87
2023/05/22 10:34:21;;;;;;;49.20;29.60;;;22.40;64.50;;;;;;4884335;28;88549;-85
2023/05/22 10:37:05;;;;;;;51.88;29.80;;;22.40;64.80;;;;;;4885181;28;92061;-87
2023/05/22 10:39:47;;;;;;;45.33;29.52;;;22.40;64.80;;;;;;4874084;28;87665;-85
2023/05/22 10:42:13;;;;;;;42.38;28.20;;;22.50;64.70;;;;;;4880378;28;88348;-86
2023/05/22 10:44:40;;;;;;;51.58;30.35;;;22.40;64.70;;;;;;4878429;28;87675;-87
2023/05/22 10:47:10;;;;;;;48.15;29.77;;;22.40;64.70;;;;;;4879048;28;90465;-86
2023/05/22 10:49:36;;;;;;;47.25;29.52;;;22.40;64.80;;;;;;4895784;28;88889;-86
2023/05/22 10:52:07;;;;;;;44.83;28.52;;;22.40;64.60;;;;;;4879617;28;89044;-87
2023/05/22 10:54:41;;;;;;;46.40;27.60;;;22.40;64.80;;;;;;4879635;28;88459;-86
2023/05/22 10:57:15;;;;;;;42.58;27.33;;;22.40;64.80;;;;;;4877620;28;90563;-87
2023/05/22 10:59:42;;;;;;;44.38;27.55;;;22.40;64.80;;;;;;4895873;28;87566;-86
2023/05/22 11:02:24;;;;;;;44.88;28.30;;;22.40;65.10;;;;;;4880134;28;87965;-86
2023/05/22 11:04:49;;;;;;;41.55;28.40;;;22.40;65.00;;;;;;4879085;28;89176;-85
2023/05/22 11:07:15;;;;;;;39.90;26.50;;;22.40;65.20;;;;;;4880667;28;90575;-85
2023/05/22 11:09:47;;;;;;;40.72;28.38;;;22.40;65.10;;;;;;4880849;28;87984;-85
2023/05/22 11:12:19;;;;;;;43.42;27.08;;;22.40;65.30;;;;;;4901934;28;89367;-86
2023/05/22 11:14:52;;;;;;;42.65;27.58;;;22.40;65.60;;;;;;4896473;28;91862;-87
2023/05/22 11:17:30;;;;;;;44.28;26.02;;;22.50;65.50;;;;;;4880021;28;89132;-87
2023/05/22 11:20:00;;;;;;;41.33;25.42;;;22.40;65.30;;;;;;4878416;28;87973;-85
2023/05/22 11:22:32;;;;;;;44.08;29.13;;;22.50;65.50;;;;;;4882997;28;90194;-89
2023/05/22 11:24:58;;;;;;;43.90;28.58;;;22.60;65.50;;;;;;4903630;28;90972;-87
2023/05/22 11:27:26;;;;;;;44.22;28.75;;;22.50;65.40;;;;;;4887177;28;87620;-87
2023/05/22 11:29:53;;;;;;;40.80;28.17;;;22.50;65.40;;;;;;4889175;28;88923;-89
2023/05/22 11:32:21;;;;;;;44.17;28.85;;;22.50;65.50;;;;;;4890301;28;87011;-85
2023/05/22 11:34:49;;;;;;;47.08;29.60;;;22.50;65.70;;;;;;4886363;28;87668;-89
2023/05/22 11:37:17;;;;;;;43.03;26.70;;;22.60;65.50;;;;;;4889264;28;87443;-90
2023/05/22 11:39:56;;;;;;;45.20;28.57;;;22.60;65.40;;;;;;4903337;28;88798;-92
2023/05/22 11:42:22;;;;;;;39.35;26.05;;;22.50;65.50;;;;;;4889273;28;87096;-88
2023/05/22 11:44:48;;;;;;;43.88;29.13;;;22.60;65.60;;;;;;4890335;28;88183;-89
2023/05/22 11:47:14;;;;;;;45.60;27.65;;;22.60;66.40;;;;;;4894565;28;88261;-87
2023/05/22 11:49:41;;;;;;;37.15;26.27;;;22.60;65.60;;;;;;4884994;28;87365;-87
2023/05/22 11:52:08;;;;;;;41.50;28.02;;;22.70;65.50;;;;;;4885084;28;89234;-91
2023/05/22 11:54:33;;;;;;;43.10;28.48;;;22.70;65.50;;;;;;4899893;28;90920;-86
2023/05/22 11:57:02;;;;;;;38.08;26.95;;;22.70;66.00;;;;;;4888738;28;88700;-84
2023/05/22 11:59:27;;;;;;;44.78;27.90;;;22.70;66.00;;;;;;4904363;28;87079;-88
2023/05/22 12:01:53;;;;;;;41.78;27.70;;;22.60;66.80;;;;;;4888073;28;87841;-84
2023/05/22 12:04:19;;;;;;;44.05;29.15;;;22.70;66.80;;;;;;4886339;28;90481;-91
2023/05/22 12:06:44;;;;;;;50.67;32.58;;;22.60;67.10;;;;;;4884877;28;93927;-90
2023/05/22 12:09:11;;;;;;;60.08;34.90;;;22.60;68.60;;;;;;4887073;28;87499;-93
2023/05/22 12:11:37;;;;;;;48.83;32.85;;;22.60;68.20;;;;;;4885109;28;88489;-92
2023/05/22 12:14:03;;;;;;;54.10;36.45;;;22.50;67.80;;;;;;4887392;28;87748;-92
2023/05/22 12:16:35;;;;;;;46.22;30.17;;;22.50;67.60;;;;;;4887809;28;90927;-91
2023/05/22 12:19:07;;;;;;;44.05;30.38;;;22.50;67.30;;;;;;4893836;28;88108;-96
2023/05/22 12:21:33;;;;;;;43.10;32.58;;;22.50;67.40;;;;;;4900814;28;88259;-92
2023/05/22 12:24:02;;;;;;;45.58;33.17;;;22.40;66.80;;;;;;4874149;28;88669;-92
2023/05/22 12:26:28;;;;;;;45.88;31.92;;;22.50;66.60;;;;;;4874169;28;91013;-91
2023/05/22 12:28:54;;;;;;;48.17;34.88;;;22.50;66.80;;;;;;4882792;28;89080;-90
2023/05/22 12:31:21;;;;;;;42.42;28.73;;;22.50;66.40;;;;;;4886607;28;88034;-96